Time;durP1;ratioP1;P1;durP2;ratioP2;P2;SDS_P1;SDS_P2;PMS_P1;PMS_P2;Temp;Humidity;BMP_temperature;BMP_pressure;BME280_temperature;BME280_humidity;BME280_pressure;Samples;Min_cycle;Max_cycle;Signal;HPM_P1;HPM_P2
2023/07/26 00:00:42;;;;;;;;;;;13.90;99.90;;;;;;5023871;28;19921;-76
2023/07/26 00:03:07;;;;;;;;;;;13.80;99.90;;;;;;5023582;28;19921;-76
2023/07/26 00:05:43;;;;;;;;;;;13.80;99.90;;;;;;5024130;28;19924;-75
2023/07/26 00:08:09;;;;;;;;;;;13.80;99.90;;;;;;5023665;28;19922;-76
2023/07/26 00:10:36;;;;;;;;;;;13.70;99.90;;;;;;5024063;28;19997;-75
2023/07/26 00:13:03;;;;;;;;;;;13.70;99.90;;;;;;5023878;28;19921;-76
2023/07/26 00:15:34;;;;;;;;;;;13.70;99.90;;;;;;5023981;28;19921;-75
2023/07/26 00:18:00;;;;;;;;;;;13.70;99.90;;;;;;5023232;28;20217;-74
2023/07/26 00:20:27;;;;;;;;;;;13.70;99.90;;;;;;5023294;28;19928;-76
2023/07/26 00:22:55;;;;;;;;;;;13.70;99.90;;;;;;5023508;28;19993;-76
2023/07/26 00:25:21;;;;;;;;;;;13.60;99.90;;;;;;5023666;28;19922;-75
2023/07/26 00:27:48;;;;;;;;;;;13.60;99.90;;;;;;5023485;28;19988;-76
2023/07/26 00:30:15;;;;;;;;;;;13.70;99.90;;;;;;5023654;28;19988;-76
2023/07/26 00:32:42;;;;;;;;;;;13.70;99.90;;;;;;5023803;28;19921;-76
2023/07/26 00:35:09;;;;;;;;;;;13.70;99.90;;;;;;5023729;28;19922;-75
2023/07/26 00:37:35;;;;;;;;;;;13.70;99.90;;;;;;5023801;28;19953;-77
2023/07/26 00:40:03;;;;;;;;;;;13.70;99.90;;;;;;5023178;28;19922;-75
2023/07/26 00:42:30;;;;;;;;;;;13.70;99.90;;;;;;5023372;28;20200;-75
2023/07/26 00:44:57;;;;;;;;;;;13.70;99.90;;;;;;5023520;28;19921;-74
2023/07/26 00:47:24;;;;;;;;;;;13.70;99.90;;;;;;5023382;28;19989;-75
2023/07/26 00:49:50;;;;;;;;;;;13.70;99.90;;;;;;5023326;28;19928;-75
2023/07/26 00:52:17;;;;;;;;;;;13.70;99.90;;;;;;5023778;28;19921;-75
2023/07/26 00:54:46;;;;;;;;;;;13.70;99.90;;;;;;5023349;28;19972;-76
2023/07/26 00:57:20;;;;;;;;;;;13.70;99.90;;;;;;5022096;28;20193;-75
2023/07/26 00:59:47;;;;;;;;;;;13.70;99.90;;;;;;5016135;28;19922;-75
2023/07/26 01:02:14;;;;;;;;;;;13.70;99.90;;;;;;5003984;28;19981;-75
2023/07/26 01:04:40;;;;;;;;;;;13.60;99.90;;;;;;5005359;28;19922;-75
2023/07/26 01:07:11;;;;;;;;;;;13.60;99.90;;;;;;5007056;28;20169;-75
2023/07/26 01:09:45;;;;;;;;;;;13.60;99.90;;;;;;5006851;28;19921;-73
2023/07/26 01:12:16;;;;;;;;;;;13.60;99.90;;;;;;5007180;28;19960;-75
2023/07/26 01:14:48;;;;;;;;;;;13.60;99.90;;;;;;5007087;28;19953;-75
2023/07/26 01:17:15;;;;;;;;;;;13.70;99.90;;;;;;5007267;28;20116;-77
2023/07/26 01:19:41;;;;;;;;;;;13.60;99.90;;;;;;5006622;28;19996;-75
2023/07/26 01:22:10;;;;;;;;;;;13.60;99.90;;;;;;5006733;28;19925;-76
2023/07/26 01:24:36;;;;;;;;;;;13.60;99.90;;;;;;5007051;28;19937;-75
2023/07/26 01:27:03;;;;;;;;;;;13.60;99.90;;;;;;5006682;28;19953;-75
2023/07/26 01:29:30;;;;;;;;;;;13.50;99.90;;;;;;5006759;28;19925;-75
2023/07/26 01:31:57;;;;;;;;;;;13.50;99.90;;;;;;5006970;28;19972;-75
2023/07/26 01:34:26;;;;;;;;;;;13.50;99.90;;;;;;5006210;28;19922;-75
2023/07/26 01:36:53;;;;;;;;;;;13.50;99.90;;;;;;5006810;28;19928;-76
2023/07/26 01:39:22;;;;;;;;;;;13.50;99.90;;;;;;5006515;28;19922;-76
2023/07/26 01:41:48;;;;;;;;;;;13.40;99.90;;;;;;5006850;28;20185;-77
2023/07/26 01:44:15;;;;;;;;;;;13.40;99.90;;;;;;5006287;28;19984;-76
2023/07/26 01:46:45;;;;;;;;;;;13.30;99.90;;;;;;5006114;28;19922;-76
2023/07/26 01:49:12;;;;;;;;;;;13.30;99.90;;;;;;5006480;28;19988;-76
2023/07/26 01:51:41;;;;;;;;;;;13.20;99.90;;;;;;5006456;28;19988;-76
2023/07/26 01:54:18;;;;;;;;;;;13.20;99.90;;;;;;5005983;28;19922;-75
2023/07/26 01:57:00;;;;;;;;;;;13.20;99.90;;;;;;5006220;28;19922;-75
2023/07/26 01:59:27;;;;;;;;;;;13.10;99.90;;;;;;5005621;28;19930;-75
2023/07/26 02:01:54;;;;;;;;;;;13.10;99.90;;;;;;5006214;28;20206;-74
2023/07/26 02:04:20;;;;;;;;;;;13.10;99.90;;;;;;5006269;28;19953;-75
2023/07/26 02:06:47;;;;;;;;;;;13.10;99.90;;;;;;5005966;28;20227;-75
2023/07/26 02:09:13;;;;;;;;;;;13.10;99.90;;;;;;5006010;28;19953;-75
2023/07/26 02:11:40;;;;;;;;;;;13.10;99.90;;;;;;5006401;28;20112;-75
2023/07/26 02:14:08;;;;;;;;;;;13.20;99.90;;;;;;5006148;28;19921;-75
2023/07/26 02:16:35;;;;;;;;;;;13.10;99.90;;;;;;5006087;28;19988;-75
2023/07/26 02:19:01;;;;;;;;;;;13.10;99.90;;;;;;5005784;28;19925;-75
2023/07/26 02:21:28;;;;;;;;;;;13.10;99.90;;;;;;5005918;28;19928;-75
2023/07/26 02:23:56;;;;;;;;;;;13.10;99.90;;;;;;5005372;28;19932;-75
2023/07/26 02:26:23;;;;;;;;;;;13.20;99.90;;;;;;5006016;28;19922;-75
2023/07/26 02:28:50;;;;;;;;;;;13.20;99.90;;;;;;5005487;28;20209;-75
2023/07/26 02:31:19;;;;;;;;;;;13.20;99.90;;;;;;5005610;28;19981;-76
2023/07/26 02:33:46;;;;;;;;;;;13.20;99.90;;;;;;5005875;28;19921;-77
2023/07/26 02:36:15;;;;;;;;;;;13.30;99.90;;;;;;5006366;28;20000;-76
2023/07/26 02:38:44;;;;;;;;;;;13.20;99.90;;;;;;5006066;28;20180;-77
2023/07/26 02:41:11;;;;;;;;;;;13.20;99.90;;;;;;5006026;28;20213;-77
2023/07/26 02:43:38;;;;;;;;;;;13.20;99.90;;;;;;5005732;28;19922;-77
2023/07/26 02:46:04;;;;;;;;;;;13.20;99.90;;;;;;5006054;28;19989;-77
2023/07/26 02:48:33;;;;;;;;;;;13.20;99.90;;;;;;5005018;28;19988;-77
2023/07/26 02:50:59;;;;;;;;;;;13.10;99.90;;;;;;5005725;28;19993;-76
2023/07/26 02:53:26;;;;;;;;;;;13.10;99.90;;;;;;5005824;28;19993;-77
2023/07/26 02:55:52;;;;;;;;;;;13.10;99.90;;;;;;5013252;28;20373;-76
2023/07/26 02:58:19;;;;;;;;;;;13.10;99.90;;;;;;5024686;28;19952;-76
2023/07/26 03:00:46;;;;;;;;;;;13.10;99.90;;;;;;5005634;28;19921;-77
2023/07/26 03:03:12;;;;;;;;;;;13.10;99.90;;;;;;5005637;28;19944;-77
2023/07/26 03:05:40;;;;;;;;;;;13.10;99.90;;;;;;5005476;28;20232;-76
2023/07/26 03:11:10;;;;;;;;;;;13.10;99.90;;;;;;5019978;28;20175;-92
2023/07/26 03:13:37;;;;;;;;;;;13.10;99.90;;;;;;5008961;28;19956;-93
2023/07/26 03:16:05;;;;;;;;;;;13.10;99.90;;;;;;4998756;28;19949;-93
2023/07/26 03:18:31;;;;;;;;;;;13.10;99.90;;;;;;4992509;28;19949;-92
2023/07/26 03:20:59;;;;;;;;;;;13.10;99.90;;;;;;4988258;28;19986;-92
2023/07/26 03:26:29;;;;;;;;;;;13.10;99.90;;;;;;4954512;28;19918;-92
2023/07/26 03:28:56;;;;;;;;;;;13.10;99.90;;;;;;4984696;28;19929;-91
2023/07/26 03:31:22;;;;;;;;;;;13.10;99.90;;;;;;4989308;28;19978;-92
2023/07/26 03:33:49;;;;;;;;;;;13.10;99.90;;;;;;4987695;28;19922;-92
2023/07/26 03:42:12;;;;;;;;;;;12.90;99.90;;;;;;4937177;29;19929;-92
2023/07/26 03:44:39;;;;;;;;;;;12.90;99.90;;;;;;4984196;28;19993;-93
2023/07/26 03:53:17;;;;;;;;;;;12.90;99.90;;;;;;4907774;29;19959;-92
2023/07/26 03:55:44;;;;;;;;;;;13.00;99.90;;;;;;4972759;28;19922;-92
2023/07/26 04:04:15;;;;;;;;;;;13.10;99.90;;;;;;4907939;29;20311;-93
2023/07/26 04:06:42;;;;;;;;;;;13.10;99.90;;;;;;4987215;28;20220;-92
2023/07/26 04:12:11;;;;;;;;;;;13.10;99.90;;;;;;5002823;28;19910;-92
2023/07/26 04:14:38;;;;;;;;;;;13.10;99.90;;;;;;5005018;28;19981;-92
2023/07/26 04:17:05;;;;;;;;;;;13.10;99.90;;;;;;5005320;28;19949;-92
2023/07/26 04:19:33;;;;;;;;;;;13.00;99.90;;;;;;5005016;28;19922;-92
2023/07/26 04:27:50;;;;;;;;;;;13.00;99.90;;;;;;4968391;28;20296;-92
2023/07/26 04:30:17;;;;;;;;;;;13.00;99.90;;;;;;5005925;28;19941;-92
2023/07/26 04:39:26;;;;;;;;;;;13.00;99.90;;;;;;4948739;29;20178;-92
2023/07/26 04:41:53;;;;;;;;;;;12.90;99.90;;;;;;4973828;28;19938;-93
2023/07/26 04:47:38;;;;;;;;;;;12.90;99.90;;;;;;4931282;29;19925;-93
2023/07/26 04:50:11;;;;;;;;;;;12.90;99.90;;;;;;4965727;29;19946;-91
2023/07/26 04:58:53;;;;;;;;;;;12.90;99.90;;;;;;4891429;29;19920;-93
2023/07/26 05:01:20;;;;;;;;;;;12.90;99.90;;;;;;4953725;29;19986;-93
2023/07/26 05:10:01;;;;;;;;;;;13.00;99.90;;;;;;4834208;29;19924;-93
2023/07/26 05:12:28;;;;;;;;;;;13.00;99.90;;;;;;4987787;28;19985;-92
2023/07/26 05:18:19;;;;;;;;;;;13.10;99.90;;;;;;4920770;29;19924;-95
2023/07/26 05:20:48;;;;;;;;;;;13.00;99.90;;;;;;4949326;29;19990;-96
2023/07/26 05:23:15;;;;;;;;;;;13.10;99.90;;;;;;5004260;28;19922;-96
2023/07/26 05:25:42;;;;;;;;;;;13.20;99.90;;;;;;5020564;28;19941;-95
2023/07/26 05:28:08;;;;;;;;;;;13.10;99.90;;;;;;5019742;28;19960;-95
2023/07/26 05:33:45;;;;;;;;;;;13.20;99.90;;;;;;4941000;29;19923;-95
2023/07/26 05:36:12;;;;;;;;;;;13.10;99.90;;;;;;4961084;28;19991;-93
2023/07/26 05:45:08;;;;;;;;;;;13.10;99.90;;;;;;4824737;29;19944;-93
2023/07/26 05:47:38;;;;;;;;;;;13.10;99.90;;;;;;4960109;29;19947;-93
2023/07/26 05:50:07;;;;;;;;;;;13.20;99.90;;;;;;4976668;28;19922;-93
2023/07/26 05:52:34;;;;;;;;;;;13.20;99.90;;;;;;4999581;28;19922;-93
2023/07/26 05:55:01;;;;;;;;;;;13.10;99.90;;;;;;4998250;28;19930;-93
2023/07/26 05:57:27;;;;;;;;;;;13.20;99.90;;;;;;4999677;28;19922;-93
2023/07/26 05:59:55;;;;;;;;;;;13.20;99.90;;;;;;5016917;28;19921;-93
2023/07/26 06:02:21;;;;;;;;;;;13.20;99.90;;;;;;5015963;28;19921;-93
2023/07/26 06:04:48;;;;;;;;;;;13.30;99.90;;;;;;5016103;28;19914;-93
2023/07/26 06:07:17;;;;;;;;;;;13.30;99.90;;;;;;5016537;28;19930;-94
2023/07/26 06:09:45;;;;;;;;;;;13.40;99.90;;;;;;5018174;28;19921;-94
2023/07/26 06:12:12;;;;;;;;;;;13.60;99.90;;;;;;5017424;28;19933;-93
2023/07/26 06:14:40;;;;;;;;;;;13.60;99.90;;;;;;5017640;28;19945;-93
2023/07/26 06:17:07;;;;;;;;;;;13.50;99.90;;;;;;5016342;28;19934;-94
2023/07/26 06:19:33;;;;;;;;;;;13.70;99.90;;;;;;5013434;28;19922;-94
2023/07/26 06:22:00;;;;;;;;;;;13.70;99.90;;;;;;5015938;28;19953;-94
2023/07/26 06:24:28;;;;;;;;;;;13.80;99.90;;;;;;5014838;28;19921;-94
2023/07/26 06:33:01;;;;;;;;;;;13.70;99.90;;;;;;4954404;29;19925;-94
2023/07/26 06:35:27;;;;;;;;;;;13.80;99.90;;;;;;5011848;28;19921;-93
2023/07/26 06:41:42;;;;;;;;;;;13.90;99.90;;;;;;4937930;29;19979;-92
2023/07/26 06:44:10;;;;;;;;;;;13.90;99.90;;;;;;4918478;29;19911;-94
2023/07/26 06:46:38;;;;;;;;;;;13.70;99.90;;;;;;4999679;28;19922;-94
2023/07/26 06:49:05;;;;;;;;;;;13.90;99.90;;;;;;5011230;28;19928;-94
2023/07/26 06:51:35;;;;;;;;;;;13.90;99.90;;;;;;5011155;28;19956;-93
2023/07/26 06:57:16;;;;;;;;;;;14.00;99.90;;;;;;4996386;28;19977;-94
2023/07/26 06:59:44;;;;;;;;;;;14.00;99.90;;;;;;4997284;28;19929;-93
2023/07/26 07:02:11;;;;;;;;;;;14.00;99.90;;;;;;5010164;28;19973;-94
2023/07/26 07:10:50;;;;;;;;;;;14.00;99.90;;;;;;4998209;28;19949;-94
2023/07/26 07:13:16;;;;;;;;;;;14.00;99.90;;;;;;5013233;28;19953;-93
2023/07/26 07:15:44;;;;;;;;;;;14.00;99.90;;;;;;5011373;28;19946;-93
2023/07/26 07:18:11;;;;;;;;;;;14.00;99.90;;;;;;5013342;28;19949;-93
2023/07/26 07:23:37;;;;;;;;;;;14.00;99.90;;;;;;4996769;28;19929;-94
2023/07/26 07:26:04;;;;;;;;;;;14.00;99.90;;;;;;5007597;28;19922;-93
2023/07/26 07:34:34;;;;;;;;;;;14.10;99.90;;;;;;4979894;28;19961;-94
2023/07/26 07:37:01;;;;;;;;;;;14.10;99.90;;;;;;5013588;28;19949;-93
2023/07/26 07:39:46;;;;;;;;;;;14.20;99.90;;;;;;5014467;28;20231;-94
2023/07/26 07:42:21;;;;;;;;;;;14.20;99.90;;;;;;5014323;28;19945;-93
2023/07/26 07:44:48;;;;;;;;;;;14.20;99.90;;;;;;5013668;28;19916;-93
2023/07/26 07:47:15;;;;;;;;;;;14.20;99.90;;;;;;5014491;28;19961;-94
2023/07/26 07:49:46;;;;;;;;;;;14.30;99.90;;;;;;5013544;28;19922;-94
2023/07/26 07:52:13;;;;;;;;;;;14.20;99.90;;;;;;5014104;28;19921;-93
2023/07/26 07:54:40;;;;;;;;;;;14.20;99.90;;;;;;5014947;28;19922;-94
2023/07/26 07:57:07;;;;;;;;;;;14.20;99.90;;;;;;5015401;28;19921;-93
2023/07/26 07:59:34;;;;;;;;;;;13.30;99.90;;;;;;5014181;28;19945;-93
2023/07/26 08:02:01;;;;;;;;;;;14.20;99.90;;;;;;5012638;28;19922;-93
2023/07/26 08:04:27;;;;;;;;;;;14.20;99.90;;;;;;5015040;28;19973;-93
2023/07/26 08:06:55;;;;;;;;;;;14.20;99.90;;;;;;5013409;28;19929;-93
2023/07/26 08:09:22;;;;;;;;;;;14.30;99.90;;;;;;5012153;28;19945;-93
2023/07/26 08:11:50;;;;;;;;;;;14.20;99.90;;;;;;5014097;28;19934;-94
2023/07/26 08:14:17;;;;;;;;;;;14.40;99.90;;;;;;5016053;28;19952;-94
2023/07/26 08:16:44;;;;;;;;;;;14.50;99.90;;;;;;5019700;28;19969;-93
2023/07/26 08:19:10;;;;;;;;;;;14.60;99.90;;;;;;5019425;28;19978;-94
2023/07/26 08:21:37;;;;;;;;;;;14.60;99.90;;;;;;5016547;28;19925;-93
2023/07/26 08:24:06;;;;;;;;;;;14.60;99.90;;;;;;5033739;23;19957;-75
2023/07/26 08:26:32;;;;;;;;;;;14.60;99.90;;;;;;5027215;28;19921;-75
2023/07/26 08:28:59;;;;;;;;;;;14.60;99.90;;;;;;5010878;28;19921;-76
2023/07/26 08:31:25;;;;;;;;;;;14.70;99.90;;;;;;5007331;28;19957;-75
2023/07/26 08:33:59;;;;;;;;;;;14.70;99.90;;;;;;5007107;28;19989;-75
2023/07/26 08:36:26;;;;;;;;;;;14.80;99.90;;;;;;5007820;28;19921;-76
2023/07/26 08:38:52;;;;;;;;;;;14.80;99.90;;;;;;5006873;28;19922;-75
2023/07/26 08:41:20;;;;;;;;;;;15.00;99.90;;;;;;5007065;28;19972;-76
2023/07/26 08:43:48;;;;;;;;;;;15.00;99.90;;;;;;5006907;28;19922;-75
2023/07/26 08:46:15;;;;;;;;;;;15.10;99.90;;;;;;5007230;28;19964;-76
2023/07/26 08:48:42;;;;;;;;;;;15.10;99.90;;;;;;5007446;28;19928;-77
2023/07/26 08:51:35;;;;;;;;;;;15.20;99.90;;;;;;5007526;28;19922;-75
2023/07/26 08:54:01;;;;;;;;;;;15.10;99.90;;;;;;4994818;28;19968;-75
2023/07/26 08:56:30;;;;;;;;;;;15.10;99.90;;;;;;5007340;28;19922;-75
2023/07/26 09:05:13;;;;;;;;;;;15.40;99.90;;;;;;4974779;28;19918;-74
2023/07/26 09:07:39;;;;;;;;;;;15.60;99.90;;;;;;4988505;28;19921;-73
2023/07/26 09:10:06;;;;;;;;;;;15.70;99.90;;;;;;4987450;28;19928;-73
2023/07/26 09:12:34;;;;;;;;;;;15.90;99.90;;;;;;4987645;28;19985;-74
2023/07/26 09:18:21;;;;;;;;;;;16.00;99.90;;;;;;4873572;28;19938;-72
2023/07/26 09:20:47;;;;;;;;;;;15.90;99.90;;;;;;4997260;28;20213;-74
2023/07/26 09:23:16;;;;;;;;;;;15.90;99.90;;;;;;5006886;28;19922;-73
2023/07/26 09:25:44;;;;;;;;;;;15.80;99.90;;;;;;5005739;28;20206;-73
2023/07/26 09:28:12;;;;;;;;;;;15.70;99.90;;;;;;5006392;28;19980;-73
2023/07/26 09:30:39;;;;;;;;;;;15.70;99.90;;;;;;5006274;28;20094;-73
2023/07/26 09:33:06;;;;;;;;;;;15.80;99.90;;;;;;5006652;28;19989;-75
2023/07/26 09:35:36;;;;;;;;;;;15.70;99.90;;;;;;5006154;28;19989;-73
2023/07/26 09:38:09;;;;;;;;;;;15.70;99.90;;;;;;4994226;28;20098;-73
2023/07/26 09:40:36;;;;;;;;;;;15.70;99.90;;;;;;4987188;28;19922;-73
2023/07/26 09:43:02;;;;;;;;;;;15.80;99.90;;;;;;4987024;28;19953;-72
2023/07/26 09:45:31;;;;;;;;;;;15.90;99.90;;;;;;4986958;28;19954;-73
2023/07/26 09:48:05;;;;;;;;;;;16.00;99.90;;;;;;4969091;28;20348;-73
2023/07/26 09:50:35;;;;;;;;;;;16.10;99.90;;;;;;4986839;28;19926;-73
2023/07/26 09:53:03;;;;;;;;;;;16.20;99.90;;;;;;4989154;28;20232;-70
2023/07/26 09:55:29;;;;;;;;;;;16.00;99.90;;;;;;4991498;28;19926;-73
2023/07/26 09:57:57;;;;;;;;;;;15.80;99.90;;;;;;4995022;28;20268;-72
2023/07/26 10:00:26;;;;;;;;;;;15.80;99.90;;;;;;4986460;28;19929;-73
2023/07/26 10:02:56;;;;;;;;;;;15.80;99.90;;;;;;4986295;28;19964;-72
2023/07/26 10:05:23;;;;;;;;;;;15.80;99.90;;;;;;4986497;28;19922;-73
2023/07/26 10:07:51;;;;;;;;;;;15.80;99.90;;;;;;4985939;28;19922;-72
2023/07/26 10:10:18;;;;;;;;;;;15.70;99.90;;;;;;4992612;28;20225;-71
2023/07/26 10:12:45;;;;;;;;;;;15.60;99.90;;;;;;4989298;28;19953;-71
2023/07/26 10:15:12;;;;;;;;;;;15.60;99.90;;;;;;4986605;28;20086;-72
2023/07/26 10:17:39;;;;;;;;;;;15.60;99.90;;;;;;4986057;28;19989;-71
2023/07/26 10:20:09;;;;;;;;;;;15.60;99.90;;;;;;4986054;28;19928;-71
2023/07/26 10:22:36;;;;;;;;;;;15.50;99.90;;;;;;4986068;28;19984;-72
2023/07/26 10:25:03;;;;;;;;;;;15.50;99.90;;;;;;4985571;28;19985;-70
2023/07/26 10:27:30;;;;;;;;;;;15.40;99.90;;;;;;4993407;28;19922;-72
2023/07/26 10:29:57;;;;;;;;;;;15.40;99.90;;;;;;5005362;28;19921;-72
2023/07/26 10:32:23;;;;;;;;;;;15.50;99.90;;;;;;5005304;28;20213;-72
2023/07/26 10:34:54;;;;;;;;;;;15.40;99.90;;;;;;5005490;28;19989;-71
2023/07/26 10:37:23;;;;;;;;;;;15.40;99.90;;;;;;5004378;28;19969;-72
2023/07/26 10:39:50;;;;;;;;;;;15.50;99.90;;;;;;5005232;28;19964;-71
2023/07/26 10:42:23;;;;;;;;;;;15.50;99.90;;;;;;5005253;28;19996;-72
2023/07/26 10:44:50;;;;;;;;;;;15.50;99.90;;;;;;5004960;28;19922;-72
2023/07/26 10:47:16;;;;;;;;;;;15.60;99.90;;;;;;5005224;28;19996;-71
2023/07/26 10:49:45;;;;;;;;;;;15.60;99.90;;;;;;5004668;28;20005;-72
2023/07/26 10:52:12;;;;;;;;;;;15.60;99.90;;;;;;5005138;28;19928;-71
2023/07/26 10:54:41;;;;;;;;;;;15.60;99.90;;;;;;4992969;28;19930;-72
2023/07/26 10:57:14;;;;;;;;;;;15.80;99.90;;;;;;4985399;28;19930;-72
2023/07/26 10:59:49;;;;;;;;;;;15.90;99.90;;;;;;4985177;28;19928;-72
2023/07/26 11:02:16;;;;;;;;;;;16.10;99.90;;;;;;4990630;28;20260;-71
2023/07/26 11:04:43;;;;;;;;;;;16.30;99.90;;;;;;4992991;28;20202;-72
2023/07/26 11:07:11;;;;;;;;;;;16.50;99.90;;;;;;4984948;28;20000;-72
2023/07/26 11:09:37;;;;;;;;;;;16.80;99.90;;;;;;4985005;28;20078;-72
2023/07/26 11:12:13;;;;;;;;;;;16.90;99.90;;;;;;4995483;28;19949;-71
2023/07/26 11:14:41;;;;;;;;;;;17.00;99.90;;;;;;5004607;28;19928;-70
2023/07/26 11:17:13;;;;;;;;;;;16.90;99.90;;;;;;5004131;28;20341;-72
2023/07/26 11:19:47;;;;;;;;;;;16.80;99.90;;;;;;5004126;28;19992;-72
2023/07/26 11:22:16;;;;;;;;;;;16.60;99.90;;;;;;5004405;28;19996;-72
2023/07/26 11:24:43;;;;;;;;;;;16.50;99.90;;;;;;5003944;28;19922;-72
2023/07/26 11:27:11;;;;;;;;;;;16.50;99.90;;;;;;5004236;28;19928;-72
2023/07/26 11:29:57;;;;;;;;;;;16.40;99.90;;;;;;5003703;28;19922;-71
2023/07/26 11:35:11;;;;;;;;;;;16.20;99.90;;;;;;5003743;28;19924;-72
2023/07/26 11:37:38;;;;;;;;;;;16.10;99.90;;;;;;5002612;28;19928;-69
2023/07/26 11:40:13;;;;;;;;;;;16.10;99.90;;;;;;5002558;28;19921;-70
2023/07/26 11:46:01;;;;;;;;;;;15.90;99.90;;;;;;5003353;28;20145;-71
2023/07/26 11:48:53;;;;;;;;;;;15.90;99.90;;;;;;4994975;28;19957;-72
2023/07/26 11:51:37;;;;;;;;;;;15.80;99.90;;;;;;5003746;28;19922;-72
2023/07/26 11:54:11;;;;;;;;;;;15.80;99.90;;;;;;5001641;28;19922;-70
2023/07/26 11:56:38;;;;;;;;;;;15.80;99.90;;;;;;4987473;28;19922;-70
2023/07/26 11:59:06;;;;;;;;;;;16.00;99.90;;;;;;5003657;28;19921;-71
2023/07/26 12:01:33;;;;;;;;;;;16.20;99.90;;;;;;5004024;28;20216;-72
2023/07/26 12:04:01;;;;;;;;;;;16.20;99.90;;;;;;5003631;28;19985;-71
2023/07/26 12:06:31;;;;;;;;;;;16.30;99.90;;;;;;5003088;28;20357;-72
2023/07/26 12:09:03;;;;;;;;;;;16.20;99.90;;;;;;5003629;28;19921;-71
2023/07/26 12:11:34;;;;;;;;;;;16.10;99.90;;;;;;4990193;28;19922;-72
2023/07/26 12:14:00;;;;;;;;;;;16.00;99.90;;;;;;5003571;28;20261;-71
2023/07/26 12:16:31;;;;;;;;;;;15.70;99.90;;;;;;5002787;28;19925;-72
2023/07/26 12:19:01;;;;;;;;;;;15.60;99.90;;;;;;5003654;28;20224;-72
2023/07/26 12:21:30;;;;;;;;;;;15.50;99.90;;;;;;5003797;28;19928;-72
2023/07/26 12:23:57;;;;;;;;;;;15.50;99.90;;;;;;4998504;28;20152;-72
2023/07/26 12:26:25;;;;;;;;;;;15.40;99.90;;;;;;5003719;28;19957;-70
2023/07/26 12:28:53;;;;;;;;;;;15.30;99.90;;;;;;5003501;28;19990;-72
2023/07/26 12:31:20;;;;;;;;;;;15.30;99.90;;;;;;5003605;28;19922;-72
2023/07/26 12:33:56;;;;;;;;;;;15.10;99.90;;;;;;5003510;28;19989;-72
2023/07/26 12:36:23;;;;;;;;;;;15.00;99.90;;;;;;5003694;28;19985;-71
2023/07/26 12:38:49;;;;;;;;;;;15.00;99.90;;;;;;5003442;28;19922;-72
2023/07/26 12:41:19;;;;;;;;;;;15.00;99.90;;;;;;5003499;28;19922;-72
2023/07/26 12:43:51;;;;;;;;;;;15.10;99.90;;;;;;5003701;28;19922;-72
2023/07/26 12:46:17;;;;;;;;;;;15.10;99.90;;;;;;5003662;28;20000;-72
2023/07/26 12:48:44;;;;;;;;;;;15.10;99.90;;;;;;5003067;28;19957;-72
2023/07/26 12:51:13;;;;;;;;;;;15.20;99.90;;;;;;5003683;28;19930;-72
2023/07/26 12:53:43;;;;;;;;;;;15.20;99.90;;;;;;4996880;28;19922;-72
2023/07/26 12:56:10;;;;;;;;;;;15.20;99.90;;;;;;4995616;28;19957;-72
2023/07/26 12:58:37;;;;;;;;;;;15.20;99.90;;;;;;5002855;28;19985;-74
2023/07/26 13:01:03;;;;;;;;;;;15.10;99.90;;;;;;5005568;28;20024;-75
2023/07/26 13:03:34;;;;;;;;;;;15.10;99.90;;;;;;5006629;28;19922;-73
2023/07/26 13:06:04;;;;;;;;;;;15.00;99.90;;;;;;5006717;28;19957;-74
2023/07/26 13:08:32;;;;;;;;;;;15.00;99.90;;;;;;5006812;28;19968;-74
2023/07/26 13:10:58;;;;;;;;;;;15.00;99.90;;;;;;5006668;28;19928;-74
2023/07/26 13:13:25;;;;;;;;;;;15.00;99.90;;;;;;5006886;28;19985;-73
2023/07/26 13:15:55;;;;;;;;;;;15.00;99.90;;;;;;5006553;28;19921;-73
2023/07/26 13:18:22;;;;;;;;;;;14.90;99.90;;;;;;5005888;28;19985;-72
2023/07/26 13:20:48;;;;;;;;;;;14.90;99.90;;;;;;5006619;28;19922;-72
2023/07/26 13:23:16;;;;;;;;;;;15.00;99.90;;;;;;5006302;28;19921;-73
2023/07/26 13:25:46;;;;;;;;;;;15.00;99.90;;;;;;5005813;28;19926;-72
2023/07/26 13:28:12;;;;;;;;;;;15.00;99.90;;;;;;5006111;28;19946;-70
2023/07/26 13:30:39;;;;;;;;;;;15.10;99.90;;;;;;5006778;28;19921;-72
2023/07/26 13:33:06;;;;;;;;;;;15.30;99.90;;;;;;5006727;28;20296;-72
2023/07/26 13:35:32;;;;;;;;;;;15.50;99.90;;;;;;5006792;28;19957;-71
2023/07/26 13:37:59;;;;;;;;;;;15.70;99.90;;;;;;5006511;28;19981;-72
2023/07/26 13:40:26;;;;;;;;;;;15.80;99.90;;;;;;5006659;28;19985;-72
2023/07/26 13:42:54;;;;;;;;;;;16.10;99.90;;;;;;5006252;28;19985;-71
2023/07/26 13:45:21;;;;;;;;;;;16.20;99.90;;;;;;5006311;28;19928;-72
2023/07/26 13:47:51;;;;;;;;;;;16.30;99.90;;;;;;5006064;28;19964;-70
2023/07/26 13:50:18;;;;;;;;;;;16.40;99.90;;;;;;5005852;28;19956;-72
2023/07/26 13:52:44;;;;;;;;;;;16.50;99.90;;;;;;5006445;28;19944;-71
2023/07/26 13:55:11;;;;;;;;;;;16.70;99.90;;;;;;5004755;28;19989;-72
2023/07/26 13:57:38;;;;;;;;;;;17.00;99.90;;;;;;5005751;28;19988;-69
2023/07/26 14:00:15;;;;;;;;;;;17.00;99.90;;;;;;5005518;28;19922;-72
2023/07/26 14:02:43;;;;;;;;;;;17.10;99.90;;;;;;5005894;28;20090;-72
2023/07/26 14:05:10;;;;;;;;;;;17.20;99.90;;;;;;5005905;28;19921;-72
2023/07/26 14:07:37;;;;;;;;;;;17.40;99.90;;;;;;5004957;28;19980;-73
2023/07/26 14:10:07;;;;;;;;;;;17.70;99.90;;;;;;5004269;28;19921;-72
2023/07/26 14:12:34;;;;;;;;;;;17.90;99.90;;;;;;5004718;28;19953;-74
2023/07/26 14:15:09;;;;;;;;;;;18.00;99.90;;;;;;5005449;28;20256;-74
2023/07/26 14:17:37;;;;;;;;;;;17.90;99.90;;;;;;5005626;28;19922;-74
2023/07/26 14:20:05;;;;;;;;;;;17.90;99.90;;;;;;5015103;28;19921;-74
2023/07/26 14:22:32;;;;;;;;;;;17.80;99.90;;;;;;5024821;28;19921;-73
2023/07/26 14:25:01;;;;;;;;;;;17.70;99.90;;;;;;5024770;28;19928;-74
2023/07/26 14:27:28;;;;;;;;;;;17.50;99.90;;;;;;5024832;28;19921;-74
2023/07/26 14:29:55;;;;;;;;;;;17.40;99.90;;;;;;5024999;28;19988;-74
2023/07/26 14:32:23;;;;;;;;;;;17.30;99.90;;;;;;5025163;28;19949;-75
2023/07/26 14:34:50;;;;;;;;;;;17.20;99.90;;;;;;5025237;28;19921;-74
2023/07/26 14:37:17;;;;;;;;;;;17.20;99.90;;;;;;5024901;28;20203;-74
2023/07/26 14:39:44;;;;;;;;;;;17.40;99.90;;;;;;5024972;28;19921;-74
2023/07/26 14:42:11;;;;;;;;;;;17.50;99.90;;;;;;5025046;28;19952;-75
2023/07/26 14:44:50;;;;;;;;;;;17.60;99.90;;;;;;5024885;28;20284;-74
2023/07/26 14:47:20;;;;;;;;;;;17.60;99.90;;;;;;5024126;28;19925;-75
2023/07/26 14:49:48;;;;;;;;;;;17.80;99.90;;;;;;5024565;28;19922;-74
2023/07/26 14:52:14;;;;;;;;;;;17.90;99.90;;;;;;5024960;28;20069;-75
2023/07/26 14:54:41;;;;;;;;;;;18.30;99.90;;;;;;5024858;28;19953;-75
2023/07/26 14:57:08;;;;;;;;;;;18.50;99.90;;;;;;5024909;28;20165;-74
2023/07/26 14:59:34;;;;;;;;;;;18.80;99.90;;;;;;5024588;28;19953;-73
2023/07/26 15:02:01;;;;;;;;;;;19.00;99.90;;;;;;5024760;28;19949;-73
2023/07/26 15:04:28;;;;;;;;;;;19.30;99.90;;;;;;5024700;28;19921;-74
2023/07/26 15:06:55;;;;;;;;;;;19.40;99.90;;;;;;5024651;28;20181;-72
2023/07/26 15:09:22;;;;;;;;;;;19.30;99.90;;;;;;5024283;28;19921;-74
2023/07/26 15:11:49;;;;;;;;;;;19.40;99.90;;;;;;5024577;28;19989;-75
2023/07/26 15:14:15;;;;;;;;;;;19.30;99.90;;;;;;5024822;28;20254;-74
2023/07/26 15:16:42;;;;;;;;;;;19.30;99.90;;;;;;5024014;28;19993;-73
2023/07/26 15:19:09;;;;;;;;;;;19.30;99.90;;;;;;5023614;28;19998;-72
2023/07/26 15:21:35;;;;;;;;;;;19.20;99.90;;;;;;5024028;28;20261;-72
2023/07/26 15:24:03;;;;;;;;;;;19.30;99.90;;;;;;5023416;28;19984;-73
2023/07/26 15:26:30;;;;;;;;;;;19.40;99.90;;;;;;5024239;28;19928;-74
2023/07/26 15:28:57;;;;;;;;;;;19.60;99.90;;;;;;5023872;28;19928;-72
2023/07/26 15:31:23;;;;;;;;;;;19.50;99.90;;;;;;5024132;28;19985;-72
2023/07/26 15:33:50;;;;;;;;;;;19.70;99.90;;;;;;5024063;28;19980;-72
2023/07/26 15:36:16;;;;;;;;;;;19.70;99.90;;;;;;5023359;28;20233;-72
2023/07/26 15:38:43;;;;;;;;;;;19.80;99.90;;;;;;5023571;28;19984;-70
2023/07/26 15:41:11;;;;;;;;;;;19.80;99.90;;;;;;5023926;28;19921;-72
2023/07/26 15:43:38;;;;;;;;;;;20.00;99.90;;;;;;5023884;28;19992;-73
2023/07/26 15:46:05;;;;;;;;;;;20.10;99.90;;;;;;5023143;28;20251;-72
2023/07/26 15:48:32;;;;;;;;;;;19.90;99.90;;;;;;5023282;28;19928;-71
2023/07/26 15:50:59;;;;;;;;;;;19.70;99.90;;;;;;5023489;28;20120;-72
2023/07/26 15:53:26;;;;;;;;;;;19.50;99.90;;;;;;5023803;28;19922;-72
2023/07/26 15:55:53;;;;;;;;;;;19.10;99.90;;;;;;5023732;28;20174;-72
2023/07/26 15:58:22;;;;;;;;;;;18.90;99.90;;;;;;5023052;28;19929;-72
2023/07/26 16:00:49;;;;;;;;;;;18.60;99.90;;;;;;5018262;28;19922;-72
2023/07/26 16:03:16;;;;;;;;;;;18.40;99.90;;;;;;4986064;28;20239;-71
2023/07/26 16:05:43;;;;;;;;;;;18.10;99.90;;;;;;4984580;28;19922;-71
2023/07/26 16:08:10;;;;;;;;;;;18.00;99.90;;;;;;4984330;28;19922;-72
2023/07/26 16:10:36;;;;;;;;;;;17.90;99.90;;;;;;4995587;28;19922;-73
2023/07/26 16:13:03;;;;;;;;;;;18.00;99.90;;;;;;4999926;28;19980;-73